AirBox status report


DeploymentNumber of DevicesDetailAvg. TemperatureAvg. HumidityAvg. PM2.5Version
1 Edimax AirBox (Taipei) 17.42% (27/155) [HTML] [JSON] [Dataset A]28.81℃ 96.63% 31.44 μg/m3 2018-04-21T18:52:30Z
2 Edimax AirBox (New Taipei) 44.97% (134/298) [HTML] [JSON] [Dataset B]27.65℃ 93.04% 44.6 μg/m3 2018-04-21T18:52:30Z
3 Edimax AirBox (Taoyuan) 39.57% (93/235) [HTML] [JSON] [Dataset A]28.32℃ 84.24% 92.89 μg/m3 2018-04-21T18:52:31Z
4 Edimax AirBox (Taichung) 76.72% (178/232) [HTML] [JSON] [Dataset B]28.81℃ 89.55% 54.1 μg/m3 2018-04-21T18:52:31Z
5 Edimax AirBox (Tainan) 64.49% (138/214) [HTML] [JSON] [Dataset B]29.41℃ 92.01% 53.17 μg/m3 2018-04-21T18:52:31Z
6 Edimax AirBox (Kaohsiung) 73.55% (178/242) [HTML] [JSON] [Dataset B]30.12℃ 86.53% 44.17 μg/m3 2018-04-21T18:52:31Z
7 Edimax AirBox (LASS) 12.16% (9/74) [HTML] [JSON] [Dataset A]29.91℃ 85.22% 34.89 μg/m3 2018-04-21T18:52:31Z
8 Edimax AirBox (TaichungZero) 66.22% (98/148) [HTML] [JSON] [Dataset A]28.87℃ 87.58% 55.65 μg/m3 2018-04-21T18:52:31Z
9 Edimax AirBox (TaoyuanFirst) 66.67% (18/27) [HTML] [JSON] [Dataset A]27.28℃ 88.61% 74.78 μg/m3 2018-04-21T18:52:31Z
10 Edimax AirBox (other) 100% (824/824) [HTML] [JSON] [Dataset A]25.75℃ 80% 63 μg/m3 2018-04-21T18:52:31Z
11 LASS AirBox (Hsinchu) 52% (26/50) [HTML] [JSON] [Dataset A]28.56℃ 85.69% 65.19 μg/m3 2018-04-21T18:52:31Z
12 LASS AirBox (Yunlin) 51.81% (100/193) [HTML] [JSON] [Dataset A]28.79℃ 86.01% 74.29 μg/m3 2018-04-21T18:52:31Z
13 LASS AirBox (Chiayi) 45.1% (23/51) [HTML] [JSON] [Dataset A]29.81℃ 78.3% 53.7 μg/m3 2018-04-21T18:52:31Z
14 LASS AirBox (Chiayi County) 44.44% (80/180) [HTML] [JSON] [Dataset A]27.9℃ 76.15% 67.8 μg/m3 2018-04-21T18:52:31Z
15 LASS AirBox (Kinmen) 41.67% (10/24) [HTML] [JSON] [Dataset A]27.21℃ 88.9% 48.1 μg/m3 2018-04-21T18:52:31Z
16 LASS (LASS FT) 100% (89/89) [HTML] [JSON] [Dataset C]23.96℃ 63.51% 45.06 μg/m3 2018-04-21T18:52:31Z
17 LASS (LASS4U) 100% (1/1) [HTML] [JSON] [Dataset D]28.86℃ 62.52% 18 μg/m3 2018-04-21T18:52:31Z
18 MAPS (LoRa) 0% (0/5) [HTML] [JSON] [Dataset E]0℃ 0% 0 μg/m3 2018-04-21T18:52:31Z
19 MAPS (WiFi) 6.9% (6/87) [HTML] [JSON] [Dataset E]-43.55℃ 27.55% 57.33 μg/m3 2018-04-21T18:52:31Z
20 MAPS (other) NAN% (0/0) [HTML] [JSON] [Dataset E]0℃ 0% 0 μg/m3 2018-04-21T18:52:31Z
21 ASLUNG 100% (30/30) [HTML] [JSON] [Dataset F]20.11℃ 82.27% 79.13 μg/m3 2018-04-21T18:52:31Z
22 *AirQ 100% (134/134) [HTML] [JSON] [Dataset J]0℃ 0% 51.04 μg/m3 2018-04-21T18:52:31Z
23 *Asus AirBox 100% (78/78) [HTML] [JSON] [Dataset G]27.45℃ 82.99% 51.09 μg/m3 2018-04-21T18:52:31Z
24 *gov Indie NAN% (0/0) [HTML] [JSON] [Dataset H]0℃ 0% 0 μg/m3 2018-04-21T18:52:31Z
25 *ProbeCube 100% (5/5) [HTML] [JSON] [Dataset I]26.66℃ 53.38% 29.4 μg/m3 2018-04-21T18:52:31Z
26 Total 67.51% (2279/3376)

Resource:

Note: